logo
Search for airport 
image banner adimage banner adimage banner ad
image banner ad

CHS7 - Halifax (South End)

Located in , Canada

ICAO - CHS7, IATA -

Data provided by Airmate  

General information

Coordinates: N44°37'32" W63°33'48"
Elevation is 13 feet MSL.
Magnetic variation is -17.7697° East
View others Airports in Nova Scotia

Operational data

Special qualification required
Current time UTC:
Current local time:
Weather at : CYAW - Shearwater ( 5 km )
TAF: TAF CYAW 222340Z 2300/2306 31012KT P6SM FEW280 FM230200 30008KT P6SM SKC BECMG 2304/2306 33005KT RMK NXT FCST BY 230600Z
View NOTAMs / SUP AIP / TFR affecting this airport [VIEW]
Communications frequencies: [VIEW]

Runways:

Airport contact information

Address: Canada

Other aviation service providers

Flight schools

Nscc Aviation Institute

Nscc Aviation Institute
Rose.Legge@nscc.ca+19024911100

Satellite view of CHS7